Wahpeton, MN

11:54 PM CST on December 13, 2019 (GMT -0600)
Stern

Weather History for KBWP - October, 2019

Change the Weather History Date:

Sunday, October 27, 2019

  Actual Average (WUND) Record (WUND)
Temperature  
Mean Temperature 34 °F -  
Max Temperature 37 °F - - (-1)
Min Temperature 30 °F - - (-1)
Degree Days  
Heating Degree Days 32    
Moisture  
Dew Point 25 °F    
Average Humidity 70    
Maximum Humidity 81    
Minimum Humidity 55    
Precipitation  
Precipitation 0.00 in - - ()
Sea Level Pressure  
Sea Level Pressure 30.01 in    
Wind  
Wind Speed 14 mph ()    
Max Wind Speed 22 mph    
Max Gust Speed 28 mph    
Visibility 10.0 miles    
Events      
Averages and records for this station are not official NWS values.
T = Trace of Precipitation, MM = Missing Value Source: Averaged Metar Reports

Daily Weather History Graph

Daily Weather History Graph

Search for Another Location

Airport or City:

Astronomy

Oct. 27, 2019 Rise Set
Actual Time 8:00 AM CDT 6:19 PM CDT
Civil Twilight 7:29 AM CDT 6:50 PM CDT
Nautical Twilight 6:53 AM CDT 7:25 PM CDT
Astronomical Twilight 6:19 AM CDT 8:00 PM CDT
Moon 7:04 AM CDT (10/27) 6:33 PM CDT (10/27)
Length of Visible Light 11h 21m
Length of Day
10h 19m
Waning Crescent, 0% of the Moon is Illuminated
Oct 27
Waning Crescent
Oct 27
New
Nov 4
First Quarter
Nov 12
Full
Nov 19
Last Quarter

Hourly Weather History & Observations

Time (CDT) Temp. Windchill Dew Point Humidity Pressure Visibility Wind Dir Wind Speed Gust Speed Precip Events Conditions
12:15 AM 37.4 °F 28.5 °F 32.0 °F 81% 29.81 in 10.0 mi NNW 15.0 mph - N/A   Unknown
12:35 AM 37.4 °F 28.5 °F 32.0 °F 81% 29.81 in 10.0 mi NNW 15.0 mph 21.9 mph N/A   Unknown
12:55 AM 37.4 °F 28.9 °F 32.0 °F 81% 29.81 in 10.0 mi NNW 13.8 mph 23.0 mph N/A   Unknown
1:15 AM 37.4 °F 28.9 °F 32.0 °F 81% 29.85 in 10.0 mi NW 13.8 mph - N/A   Unknown
1:35 AM 37.4 °F 30.3 °F 32.0 °F 81% 29.83 in 10.0 mi NNW 10.4 mph - N/A   Unknown
1:55 AM 37.4 °F 30.3 °F 32.0 °F 81% 29.84 in 10.0 mi NW 10.4 mph - N/A   Unknown
2:15 AM 37.4 °F 30.3 °F 32.0 °F 81% 29.85 in 10.0 mi NW 10.4 mph - N/A   Unknown
2:35 AM 37.4 °F 28.9 °F 32.0 °F 81% 29.89 in 10.0 mi NW 13.8 mph - N/A   Unknown
2:55 AM 37.4 °F 28.5 °F 32.0 °F 81% 29.91 in 10.0 mi NW 15.0 mph - N/A   Unknown
3:15 AM 37.4 °F 27.8 °F 32.0 °F 81% 29.91 in 10.0 mi NW 17.3 mph 20.7 mph N/A   Unknown
3:35 AM 37.4 °F 28.5 °F 32.0 °F 81% 29.90 in 10.0 mi NW 15.0 mph 18.4 mph N/A   Unknown
3:55 AM 37.4 °F 28.2 °F 32.0 °F 81% 29.90 in 10.0 mi NW 16.1 mph 20.7 mph N/A   Unknown
4:15 AM 37.4 °F 29.3 °F 32.0 °F 81% 29.89 in 10.0 mi NNW 12.7 mph - N/A   Unknown
4:35 AM 37.4 °F 29.3 °F 32.0 °F 81% 29.91 in 10.0 mi NW 12.7 mph - N/A   Unknown
4:55 AM 37.4 °F 28.9 °F 32.0 °F 81% 29.92 in 10.0 mi NW 13.8 mph - N/A   Unknown
5:15 AM 37.4 °F 28.5 °F 32.0 °F 81% 29.93 in 10.0 mi NW 15.0 mph - N/A   Unknown
5:35 AM 37.4 °F 28.9 °F 30.2 °F 75% 29.93 in 10.0 mi NW 13.8 mph 20.7 mph N/A   Unknown
5:55 AM 37.4 °F 29.3 °F 30.2 °F 75% 29.93 in 10.0 mi NW 12.7 mph - N/A   Unknown
6:15 AM 37.4 °F 28.9 °F 30.2 °F 75% 29.93 in 10.0 mi NW 13.8 mph 20.7 mph N/A   Unknown
6:35 AM 35.6 °F 26.2 °F 30.2 °F 81% 29.93 in 10.0 mi NW 15.0 mph - N/A   Unknown
6:55 AM 35.6 °F 26.6 °F 30.2 °F 81% 29.94 in 10.0 mi NW 13.8 mph 18.4 mph N/A   Unknown
7:15 AM 35.6 °F 26.6 °F 30.2 °F 81% 29.95 in 10.0 mi NW 13.8 mph 19.6 mph N/A   Unknown
7:35 AM 35.6 °F 25.9 °F 30.2 °F 81% 29.95 in 10.0 mi NW 16.1 mph 19.6 mph N/A   Unknown
7:55 AM 35.6 °F 26.2 °F 30.2 °F 81% 29.97 in 10.0 mi NW 15.0 mph 19.6 mph N/A   Unknown
8:15 AM 35.6 °F 26.6 °F 30.2 °F 81% 29.97 in 10.0 mi NNW 13.8 mph - N/A   Unknown
8:35 AM 35.6 °F 26.6 °F 30.2 °F 81% 29.98 in 10.0 mi NW 13.8 mph - N/A   Unknown
8:55 AM 35.6 °F 25.9 °F 30.2 °F 81% 29.99 in 10.0 mi NW 16.1 mph - N/A   Unknown
9:15 AM 35.6 °F 25.5 °F 30.2 °F 81% 30.00 in 10.0 mi NW 17.3 mph - N/A   Unknown
9:35 AM 35.6 °F 25.9 °F 28.4 °F 75% 30.01 in 10.0 mi NW 16.1 mph 23.0 mph N/A   Unknown
9:55 AM 35.6 °F 25.2 °F 28.4 °F 75% 30.02 in 10.0 mi NW 18.4 mph 24.2 mph N/A   Unknown
10:15 AM 35.6 °F 25.5 °F 28.4 °F 75% 30.03 in 10.0 mi NW 17.3 mph - N/A   Unknown
10:35 AM 35.6 °F 26.2 °F 28.4 °F 75% 30.03 in 10.0 mi NW 15.0 mph - N/A   Unknown
10:55 AM 35.6 °F 25.2 °F 28.4 °F 75% 30.03 in 10.0 mi NW 18.4 mph 23.0 mph N/A   Unknown
11:15 AM 33.8 °F 22.5 °F 26.6 °F 75% 30.02 in 10.0 mi NW 19.6 mph - N/A   Unknown
11:35 AM 33.8 °F 22.8 °F 26.6 °F 75% 30.04 in 10.0 mi NW 18.4 mph 21.9 mph N/A   Unknown
11:55 AM 33.8 °F 22.5 °F 26.6 °F 75% 30.04 in 10.0 mi NW 19.6 mph 26.5 mph N/A   Unknown
12:15 PM 33.8 °F 23.5 °F 26.6 °F 75% 30.05 in 10.0 mi NW 16.1 mph 23.0 mph N/A   Unknown
12:35 PM 35.6 °F 25.5 °F 26.6 °F 70% 30.05 in 10.0 mi NW 17.3 mph - N/A   Unknown
12:55 PM 33.8 °F 23.5 °F 26.6 °F 75% 30.06 in 10.0 mi NW 16.1 mph 21.9 mph N/A   Unknown
1:35 PM 35.6 °F 25.9 °F 24.8 °F 65% 30.05 in 10.0 mi NW 16.1 mph 21.9 mph N/A   Unknown
1:55 PM 35.6 °F 25.9 °F 23.0 °F 60% 30.05 in 10.0 mi NW 16.1 mph 27.6 mph N/A   Unknown
2:15 PM 35.6 °F 24.2 °F 23.0 °F 60% 30.05 in 10.0 mi WNW 21.9 mph - N/A   Unknown
2:35 PM 35.6 °F 25.5 °F 23.0 °F 60% 30.06 in 10.0 mi NW 17.3 mph - N/A   Unknown
2:55 PM 35.6 °F 25.5 °F 21.2 °F 56% 30.06 in 10.0 mi WNW 17.3 mph - N/A   Unknown
3:15 PM 35.6 °F 24.8 °F 21.2 °F 56% 30.04 in 10.0 mi WNW 19.6 mph - N/A   Unknown
3:35 PM 35.6 °F 24.5 °F 21.2 °F 56% 30.05 in 10.0 mi NW 20.7 mph 25.3 mph N/A   Unknown
3:55 PM 33.8 °F 22.5 °F 19.4 °F 56% 30.05 in 10.0 mi WNW 19.6 mph 26.5 mph N/A   Unknown
4:15 PM 33.8 °F 22.8 °F 19.4 °F 56% 30.06 in 10.0 mi WNW 18.4 mph 25.3 mph N/A   Unknown
4:35 PM 33.8 °F 22.5 °F 21.2 °F 60% 30.05 in 10.0 mi NW 19.6 mph 25.3 mph N/A   Unknown
4:55 PM 33.8 °F 23.9 °F 21.2 °F 60% 30.06 in 10.0 mi WNW 15.0 mph 21.9 mph N/A   Unknown
5:15 PM 33.8 °F 22.8 °F 21.2 °F 60% 30.06 in 10.0 mi NW 18.4 mph - N/A   Unknown
5:35 PM 32.0 °F 20.5 °F 19.4 °F 60% 30.07 in 10.0 mi WNW 18.4 mph 21.9 mph N/A   Unknown
5:55 PM 32.0 °F 19.8 °F 19.4 °F 60% 30.08 in 10.0 mi WNW 20.7 mph 25.3 mph N/A   Unknown
6:15 PM 32.0 °F 22.1 °F 17.6 °F 55% 30.08 in 10.0 mi WNW 13.8 mph 19.6 mph N/A   Unknown
6:35 PM 32.0 °F 20.5 °F 19.4 °F 60% 30.08 in 10.0 mi WNW 18.4 mph 21.9 mph N/A   Unknown
6:55 PM 32.0 °F 20.8 °F 19.4 °F 60% 30.09 in 10.0 mi WNW 17.3 mph 23.0 mph N/A   Unknown
7:35 PM 32.0 °F 21.2 °F 19.4 °F 60% 30.08 in 10.0 mi NW 16.1 mph - N/A   Unknown
7:55 PM 32.0 °F 22.1 °F 19.4 °F 60% 30.09 in 10.0 mi WNW 13.8 mph - N/A   Unknown
8:15 PM 32.0 °F 21.6 °F 19.4 °F 60% 30.10 in 10.0 mi WNW 15.0 mph 20.7 mph N/A   Unknown
8:35 PM 32.0 °F 22.5 °F 17.6 °F 55% 30.10 in 10.0 mi WNW 12.7 mph - N/A   Unknown
8:55 PM 32.0 °F 21.2 °F 17.6 °F 55% 30.11 in 10.0 mi WNW 16.1 mph - N/A   Unknown
9:15 PM 32.0 °F 22.5 °F 19.4 °F 60% 30.11 in 10.0 mi NW 12.7 mph - N/A   Unknown
9:35 PM 30.2 °F 18.9 °F 17.6 °F 60% 30.11 in 10.0 mi WNW 16.1 mph - N/A   Unknown
9:55 PM 30.2 °F 19.3 °F 17.6 °F 60% 30.11 in 10.0 mi NW 15.0 mph - N/A   Unknown
10:15 PM 30.2 °F 18.9 °F 17.6 °F 60% 30.12 in 10.0 mi WNW 16.1 mph - N/A   Unknown
10:35 PM 30.2 °F 19.3 °F 17.6 °F 60% 30.12 in 10.0 mi WNW 15.0 mph - N/A   Unknown
10:55 PM 30.2 °F 18.9 °F 15.8 °F 55% 30.12 in 10.0 mi WNW 16.1 mph - N/A   Unknown
11:15 PM 30.2 °F 19.8 °F 17.6 °F 60% 30.12 in 10.0 mi WNW 13.8 mph - N/A   Unknown
11:35 PM 30.2 °F 20.2 °F 15.8 °F 55% 30.11 in 10.0 mi WNW 12.7 mph 17.3 mph N/A   Unknown
11:55 PM 30.2 °F 21.9 °F 17.6 °F 60% 30.11 in 10.0 mi WNW 9.2 mph - N/A   Unknown